Station History

Weather Underground - logo

Station Historical Data
Daily Summary for December 29, 2017 Units:  English    Metric   Both
« Previous Day
Next Day »
Daily Weekly Monthly Yearly Custom
  High: Low: Average:
Temperature: 62.9 °F 33.0 °F 43.7 °F
Dew Point: 45.0 °F 31.2 °F 38.1 °F
Humidity: 94 % 51 % 82 %
Wind Speed: 3.5 mph 0.0 mph 0.2 mph
Wind Gust: 3.5 mph - -
Wind:- - WNW
Pressure: 30.27 in 30.17 in -
Precipitation: 0.00 in    
Historical Graphs
 
 
Tabular Data for December 29, 2017
Time Temperature Dew Point Pressure Wind Wind Speed Wind Gust Humidity Rainfall Rate (Hourly)
00:00 39.2 °F 35.9 °F 30.24 in Calm     88 % 0.00 in
00:05 39.1 °F 35.8 °F 30.24 in Calm     88 % 0.00 in
00:06 39.0 °F 36.0 °F 30.24 in Calm     89 % 0.00 in
00:11 38.8 °F 35.8 °F 30.24 in Calm     89 % 0.00 in
00:12 38.9 °F 35.9 °F 30.24 in Calm     89 % 0.00 in
00:15 38.7 °F 35.7 °F 30.24 in Calm     89 % 0.00 in
00:17 38.6 °F 35.6 °F 30.24 in Calm     89 % 0.00 in
00:22 38.5 °F 35.5 °F 30.24 in Calm     89 % 0.00 in
00:27 38.4 °F 35.4 °F 30.24 in Calm     89 % 0.00 in
00:28 38.4 °F 35.4 °F 30.24 in Calm     89 % 0.00 in
00:33 38.4 °F 35.4 °F 30.24 in Calm     89 % 0.00 in
00:36 38.4 °F 35.4 °F 30.24 in Calm     89 % 0.00 in
00:41 38.4 °F 35.4 °F 30.24 in Calm     89 % 0.00 in
00:46 38.2 °F 35.2 °F 30.24 in Calm     89 % 0.00 in
00:48 38.2 °F 35.2 °F 30.24 in Calm     89 % 0.00 in
00:49 38.1 °F 35.1 °F 30.24 in Calm     89 % 0.00 in
00:53 38.0 °F 35.0 °F 30.24 in Calm     89 % 0.00 in
00:54 38.0 °F 35.0 °F 30.24 in Calm     89 % 0.00 in
00:59 37.9 °F 35.2 °F 30.23 in Calm     90 % 0.00 in
01:02 38.0 °F 35.3 °F 30.24 in Calm     90 % 0.00 in
01:03 38.1 °F 35.4 °F 30.24 in Calm     90 % 0.00 in
01:08 38.3 °F 35.9 °F 30.23 in Calm     91 % 0.00 in
01:13 38.6 °F 36.2 °F 30.23 in Calm     91 % 0.00 in
01:15 38.7 °F 36.0 °F 30.23 in Calm     90 % 0.00 in
01:16 38.7 °F 36.0 °F 30.23 in Calm     90 % 0.00 in
01:21 38.6 °F 35.9 °F 30.23 in Calm     90 % 0.00 in
01:26 38.7 °F 36.0 °F 30.23 in Calm     90 % 0.00 in
01:29 38.8 °F 36.1 °F 30.23 in Calm     90 % 0.00 in
01:32 39.0 °F 36.3 °F 30.23 in Calm     90 % 0.00 in
01:37 39.0 °F 36.3 °F 30.23 in Calm     90 % 0.00 in
01:42 39.1 °F 36.4 °F 30.23 in Calm     90 % 0.00 in
01:43 39.1 °F 36.4 °F 30.23 in Calm     90 % 0.00 in
01:44 39.1 °F 36.4 °F 30.23 in Calm     90 % 0.00 in
01:49 38.9 °F 35.9 °F 30.23 in Calm     89 % 0.00 in
01:54 38.8 °F 36.1 °F 30.23 in Calm     90 % 0.00 in
01:59 38.6 °F 35.6 °F 30.23 in Calm     89 % 0.00 in
02:00 38.5 °F 35.5 °F 30.23 in Calm     89 % 0.00 in
02:05 38.3 °F 35.3 °F 30.23 in Calm     89 % 0.00 in
02:09 37.9 °F 34.7 °F 30.23 in Calm     88 % 0.00 in
02:14 37.5 °F 34.3 °F 30.23 in Calm     88 % 0.00 in
02:16 37.4 °F 34.2 °F 30.23 in Calm     88 % 0.00 in
02:17 37.3 °F 34.1 °F 30.23 in Calm     88 % 0.00 in
02:21 37.2 °F 34.3 °F 30.23 in Calm     89 % 0.00 in
02:24 37.0 °F 34.1 °F 30.23 in Calm     89 % 0.00 in
02:29 36.7 °F 33.8 °F 30.23 in Calm     89 % 0.00 in
02:31 36.6 °F 33.7 °F 30.23 in Calm     89 % 0.00 in
02:36 36.5 °F 33.8 °F 30.23 in Calm     90 % 0.00 in
02:37 36.5 °F 33.8 °F 30.23 in Calm     90 % 0.00 in
02:42 36.5 °F 33.8 °F 30.23 in Calm     90 % 0.00 in
02:43 36.5 °F 33.8 °F 30.23 in Calm     90 % 0.00 in
02:44 36.5 °F 33.8 °F 30.23 in Calm     90 % 0.00 in
02:48 36.5 °F 34.1 °F 30.23 in Calm     91 % 0.00 in
02:52 36.6 °F 34.2 °F 30.23 in Calm     91 % 0.00 in
02:57 36.6 °F 34.2 °F 30.23 in Calm     91 % 0.00 in
02:59 36.6 °F 34.2 °F 30.23 in Calm     91 % 0.00 in
03:03 36.4 °F 33.7 °F 30.23 in Calm     90 % 0.00 in
03:08 36.0 °F 33.4 °F 30.23 in Calm     90 % 0.00 in
03:10 35.9 °F 33.3 °F 30.23 in Calm     90 % 0.00 in
03:15 35.7 °F 33.1 °F 30.23 in Calm     90 % 0.00 in
03:16 35.7 °F 33.1 °F 30.23 in Calm     90 % 0.00 in
03:21 35.5 °F 32.9 °F 30.23 in Calm     90 % 0.00 in
03:23 35.5 °F 32.9 °F 30.23 in Calm     90 % 0.00 in
03:27 35.3 °F 32.7 °F 30.23 in Calm     90 % 0.00 in
03:33 35.3 °F 32.9 °F 30.23 in Calm     91 % 0.00 in
03:34 35.3 °F 32.9 °F 30.23 in Calm     91 % 0.00 in
03:37 35.3 °F 32.9 °F 30.23 in Calm     91 % 0.00 in
03:42 35.1 °F 32.7 °F 30.23 in Calm     91 % 0.00 in
03:44 35.1 °F 32.7 °F 30.23 in Calm     91 % 0.00 in
03:49 34.9 °F 32.5 °F 30.23 in Calm     91 % 0.00 in
03:51 34.9 °F 32.5 °F 30.23 in Calm     91 % 0.00 in
03:56 34.9 °F 32.8 °F 30.23 in Calm     92 % 0.00 in
03:58 34.9 °F 32.8 °F 30.23 in Calm     92 % 0.00 in
04:03 34.9 °F 32.8 °F 30.23 in Calm     92 % 0.00 in
04:04 34.9 °F 32.8 °F 30.23 in Calm     92 % 0.00 in
04:09 34.9 °F 32.8 °F 30.23 in Calm     92 % 0.00 in
04:14 34.9 °F 32.8 °F 30.22 in Calm     92 % 0.00 in
04:16 34.9 °F 32.8 °F 30.22 in Calm     92 % 0.00 in
04:21 34.9 °F 32.8 °F 30.22 in Calm     92 % 0.00 in
04:26 34.8 °F 32.7 °F 30.22 in Calm     92 % 0.00 in
04:27 34.8 °F 32.7 °F 30.22 in Calm     92 % 0.00 in
04:28 34.8 °F 32.7 °F 30.22 in Calm     92 % 0.00 in
04:33 34.8 °F 32.7 °F 30.22 in Calm     92 % 0.00 in
04:35 34.8 °F 32.7 °F 30.22 in Calm     92 % 0.00 in
04:40 34.6 °F 32.2 °F 30.22 in Calm     91 % 0.00 in
04:45 34.4 °F 32.0 °F 30.22 in Calm     91 % 0.00 in
04:50 34.2 °F 31.8 °F 30.22 in Calm     91 % 0.00 in
04:54 34.1 °F 31.7 °F 30.22 in Calm     91 % 0.00 in
04:59 34.1 °F 32.0 °F 30.22 in Calm     92 % 0.00 in
05:00 34.1 °F 32.0 °F 30.22 in Calm     92 % 0.00 in
05:01 34.2 °F 31.8 °F 30.22 in Calm     91 % 0.00 in
05:06 34.5 °F 32.4 °F 30.22 in Calm     92 % 0.00 in
05:12 34.7 °F 32.6 °F 30.22 in Calm     92 % 0.00 in
05:13 34.7 °F 32.6 °F 30.22 in Calm     92 % 0.00 in
05:18 34.7 °F 32.6 °F 30.22 in Calm     92 % 0.00 in
05:23 34.8 °F 32.7 °F 30.22 in Calm     92 % 0.00 in
05:24 34.8 °F 32.7 °F 30.22 in Calm     92 % 0.00 in
05:26 34.7 °F 32.6 °F 30.22 in Calm     92 % 0.00 in
05:31 34.5 °F 32.4 °F 30.22 in Calm     92 % 0.00 in
05:34 34.4 °F 32.3 °F 30.22 in Calm     92 % 0.00 in
05:39 34.4 °F 32.3 °F 30.22 in Calm     92 % 0.00 in
05:40 34.4 °F 32.3 °F 30.22 in Calm     92 % 0.00 in
05:45 34.7 °F 32.9 °F 30.23 in Calm     93 % 0.00 in
05:47 34.7 °F 32.9 °F 30.23 in Calm     93 % 0.00 in
05:51 34.7 °F 32.9 °F 30.22 in Calm     93 % 0.00 in
05:52 34.7 °F 32.9 °F 30.23 in Calm     93 % 0.00 in
05:57 34.8 °F 33.0 °F 30.22 in Calm     93 % 0.00 in
05:59 34.7 °F 32.9 °F 30.22 in Calm     93 % 0.00 in
06:04 34.5 °F 32.7 °F 30.23 in Calm     93 % 0.00 in
06:06 34.5 °F 32.7 °F 30.23 in Calm     93 % 0.00 in
06:09 34.4 °F 32.6 °F 30.23 in Calm     93 % 0.00 in
06:11 34.3 °F 32.5 °F 30.23 in Calm     93 % 0.00 in
06:16 34.1 °F 32.3 °F 30.23 in Calm     93 % 0.00 in
06:18 34.1 °F 32.3 °F 30.23 in Calm     93 % 0.00 in
06:23 33.9 °F 32.1 °F 30.23 in Calm     93 % 0.00 in
06:27 33.9 °F 32.1 °F 30.23 in Calm     93 % 0.00 in
06:32 33.9 °F 32.1 °F 30.23 in Calm     93 % 0.00 in
06:36 33.8 °F 32.0 °F 30.23 in Calm     93 % 0.00 in
06:41 33.5 °F 31.7 °F 30.24 in Calm     93 % 0.00 in
06:42 33.4 °F 31.6 °F 30.24 in Calm     93 % 0.00 in
06:47 33.3 °F 31.5 °F 30.24 in Calm     93 % 0.00 in
06:49 33.2 °F 31.4 °F 30.24 in Calm     93 % 0.00 in
06:54 33.0 °F 31.2 °F 30.24 in Calm     93 % 0.00 in
06:55 33.0 °F 31.2 °F 30.24 in Calm     93 % 0.00 in
06:57 33.0 °F 31.2 °F 30.24 in Calm     93 % 0.00 in
07:01 33.0 °F 31.2 °F 30.24 in Calm     93 % 0.00 in
07:03 33.1 °F 31.3 °F 30.24 in Calm     93 % 0.00 in
07:08 33.2 °F 31.7 °F 30.24 in Calm     94 % 0.00 in
07:09 33.3 °F 31.8 °F 30.24 in Calm     94 % 0.00 in
07:10 33.3 °F 31.8 °F 30.24 in Calm     94 % 0.00 in
07:15 33.3 °F 31.8 °F 30.24 in Calm     94 % 0.00 in
07:20 33.5 °F 32.0 °F 30.24 in Calm     94 % 0.00 in
07:22 33.6 °F 32.1 °F 30.24 in Calm     94 % 0.00 in
07:25 33.9 °F 32.4 °F 30.24 in Calm     94 % 0.00 in
07:29 34.0 °F 32.5 °F 30.24 in Calm     94 % 0.00 in
07:32 34.0 °F 32.5 °F 30.24 in Calm     94 % 0.00 in
07:36 34.0 °F 32.2 °F 30.24 in Calm     93 % 0.00 in
07:38 34.1 °F 32.3 °F 30.24 in Calm     93 % 0.00 in
07:43 34.4 °F 32.6 °F 30.24 in Calm     93 % 0.00 in
07:44 34.4 °F 32.6 °F 30.24 in WNW 1.2 mph   93 % 0.00 in
07:46 34.5 °F 32.7 °F 30.24 in WNW 1.0 mph   93 % 0.00 in
07:53 34.8 °F 33.0 °F 30.25 in Calm     93 % 0.00 in
07:56 35.0 °F 33.2 °F 30.25 in Calm     93 % 0.00 in
07:57 35.1 °F 33.3 °F 30.25 in Calm     93 % 0.00 in
08:02 35.5 °F 33.9 °F 30.25 in Calm     94 % 0.00 in
08:07 36.3 °F 34.7 °F 30.25 in Calm     94 % 0.00 in
08:12 37.3 °F 35.7 °F 30.25 in Calm     94 % 0.00 in
08:15 38.1 °F 36.5 °F 30.25 in Calm     94 % 0.00 in
08:18 38.6 °F 37.0 °F 30.25 in Calm     94 % 0.00 in
08:21 39.1 °F 37.2 °F 30.25 in Calm     93 % 0.00 in
08:25 40.0 °F 37.9 °F 30.26 in Calm     92 % 0.00 in
08:30 40.8 °F 38.1 °F 30.26 in Calm     90 % 0.00 in
08:31 40.9 °F 38.2 °F 30.26 in Calm     90 % 0.00 in
08:32 41.0 °F 38.0 °F 30.26 in Calm     89 % 0.00 in
08:37 42.2 °F 39.5 °F 30.26 in Calm     90 % 0.00 in
08:40 42.8 °F 39.5 °F 30.26 in Calm     88 % 0.00 in
08:42 43.1 °F 39.5 °F 30.26 in Calm     87 % 0.00 in
08:47 44.1 °F 40.2 °F 30.26 in Calm     86 % 0.00 in
08:50 44.6 °F 40.7 °F 30.26 in Calm     86 % 0.00 in
08:55 45.9 °F 41.3 °F 30.26 in Calm     84 % 0.00 in
09:00 46.5 °F 41.0 °F 30.26 in Calm     81 % 0.00 in
09:03 46.5 °F 41.0 °F 30.27 in Calm     81 % 0.00 in
09:04 46.4 °F 40.9 °F 30.27 in Calm     81 % 0.00 in
09:09 46.4 °F 40.9 °F 30.27 in Calm     81 % 0.00 in
09:10 46.4 °F 40.9 °F 30.27 in Calm     81 % 0.00 in
09:12 46.5 °F 41.0 °F 30.27 in Calm     81 % 0.00 in
09:17 46.9 °F 41.4 °F 30.27 in Calm     81 % 0.00 in
09:18 46.9 °F 41.4 °F 30.27 in WNW 1.2 mph   81 % 0.00 in
09:21 47.0 °F 41.1 °F 30.27 in Calm     80 % 0.00 in
09:26 47.5 °F 41.6 °F 30.27 in Calm     80 % 0.00 in
09:27 47.7 °F 41.8 °F 30.27 in Calm     80 % 0.00 in
09:32 48.9 °F 42.3 °F 30.27 in ESE 1.2 mph   78 % 0.00 in
09:37 49.7 °F 42.4 °F 30.27 in Calm     76 % 0.00 in
09:38 49.9 °F 42.3 °F 30.27 in Calm     75 % 0.00 in
09:41 50.4 °F 42.4 °F 30.27 in Calm     74 % 0.00 in
09:46 50.6 °F 41.9 °F 30.27 in Calm     72 % 0.00 in
09:47 50.6 °F 41.9 °F 30.27 in Calm     72 % 0.00 in
09:52 50.7 °F 42.4 °F 30.27 in NNE 1.2 mph 1.2 mph 73 % 0.00 in
09:54 50.7 °F 42.4 °F 30.27 in Calm     73 % 0.00 in
09:59 51.1 °F 42.4 °F 30.27 in Calm     72 % 0.00 in
10:01 51.2 °F 42.1 °F 30.27 in NNE 1.2 mph   71 % 0.00 in
10:04 51.4 °F 42.3 °F 30.27 in NNW 1.2 mph 1.2 mph 71 % 0.00 in
10:09 51.5 °F 42.0 °F 30.27 in Calm     70 % 0.00 in
10:14 51.7 °F 42.2 °F 30.27 in NW 2.3 mph 2.3 mph 70 % 0.00 in
10:19 51.8 °F 41.6 °F 30.27 in NW 1.2 mph 1.2 mph 68 % 0.00 in
10:21 51.9 °F 41.7 °F 30.27 in NW 1.2 mph   68 % 0.00 in
10:26 52.4 °F 42.5 °F 30.26 in NW 2.3 mph 2.3 mph 69 % 0.00 in
10:30 52.7 °F 42.4 °F 30.26 in NW 2.3 mph 2.3 mph 68 % 0.00 in
10:33 52.9 °F 42.2 °F 30.26 in NW 2.3 mph 2.3 mph 67 % 0.00 in
10:38 53.4 °F 42.7 °F 30.26 in NW 1.2 mph 1.2 mph 67 % 0.00 in
10:41 53.6 °F 42.5 °F 30.26 in NW 1.2 mph 1.5 mph 66 % 0.00 in
10:44 53.7 °F 42.6 °F 30.26 in NW 2.3 mph 2.3 mph 66 % 0.00 in
10:49 54.1 °F 42.6 °F 30.26 in WNW 1.2 mph 1.2 mph 65 % 0.00 in
10:51 54.2 °F 42.7 °F 30.25 in WNW 1.2 mph   65 % 0.00 in
10:56 54.8 °F 42.9 °F 30.25 in NW 2.3 mph 2.3 mph 64 % 0.00 in
11:31 57.7 °F 43.5 °F 30.23 in WNW 1.2 mph 1.2 mph 59 % 0.00 in
11:32 57.7 °F 43.5 °F 30.23 in Calm     59 % 0.00 in
11:36 57.8 °F 43.6 °F 30.23 in NW 1.2 mph 1.2 mph 59 % 0.00 in
11:38 57.9 °F 43.7 °F 30.23 in Calm     59 % 0.00 in
11:43 58.2 °F 43.5 °F 30.23 in Calm   0.2 mph 58 % 0.00 in
11:49 58.4 °F 44.1 °F 30.22 in NW 3.5 mph 3.5 mph 59 % 0.00 in
11:51 58.5 °F 44.2 °F 30.22 in WNW 1.2 mph 1.2 mph 59 % 0.00 in
11:56 58.7 °F 44.0 °F 30.22 in Calm     58 % 0.00 in
11:57 58.8 °F 43.6 °F 30.22 in Calm     57 % 0.00 in
12:02 59.2 °F 44.0 °F 30.22 in NW 1.2 mph 1.2 mph 57 % 0.00 in
12:03 59.3 °F 44.1 °F 30.22 in NNW 3.5 mph 3.5 mph 57 % 0.00 in
12:07 59.6 °F 44.3 °F 30.21 in NW 1.2 mph 1.2 mph 57 % 0.00 in
12:11 59.7 °F 44.0 °F 30.21 in NW 1.2 mph   56 % 0.00 in
12:16 60.1 °F 44.3 °F 30.21 in NNW 2.3 mph 2.3 mph 56 % 0.00 in
12:18 60.2 °F 44.4 °F 30.21 in Calm     56 % 0.00 in
12:23 60.4 °F 43.7 °F 30.20 in WNW 3.5 mph 3.5 mph 54 % 0.00 in
12:25 60.4 °F 44.2 °F 30.20 in NW 1.2 mph   55 % 0.00 in
12:30 60.6 °F 44.3 °F 30.20 in WNW 3.5 mph 3.5 mph 55 % 0.00 in
12:34 60.6 °F 44.3 °F 30.20 in WNW 2.3 mph 2.3 mph 55 % 0.00 in
12:39 60.9 °F 44.6 °F 30.20 in WNW 1.2 mph 1.2 mph 55 % 0.00 in
12:43 61.1 °F 44.3 °F 30.20 in North 1.2 mph 1.2 mph 54 % 0.00 in
15:28 62.9 °F 44.5 °F 30.18 in WSW 2.3 mph 2.3 mph 51 % 0.00 in
15:29 62.9 °F 44.5 °F 30.18 in WSW 2.3 mph 2.3 mph 51 % 0.00 in
15:34 62.7 °F 44.8 °F 30.18 in WSW 1.2 mph   52 % 0.00 in
15:37 62.7 °F 44.3 °F 30.18 in Calm     51 % 0.00 in
15:39 62.6 °F 44.7 °F 30.18 in Calm     52 % 0.00 in
15:42 62.5 °F 44.6 °F 30.18 in Calm     52 % 0.00 in
15:46 62.4 °F 45.0 °F 30.18 in Calm     53 % 0.00 in
15:49 62.3 °F 44.9 °F 30.18 in Calm     53 % 0.00 in
15:54 62.0 °F 44.7 °F 30.18 in Calm     53 % 0.00 in
15:59 61.6 °F 44.8 °F 30.18 in Calm     54 % 0.00 in
16:01 61.6 °F 44.8 °F 30.18 in Calm     54 % 0.00 in
16:06 61.1 °F 44.8 °F 30.18 in Calm     55 % 0.00 in
16:11 60.7 °F 44.9 °F 30.18 in Calm     56 % 0.00 in
16:17 60.0 °F 44.7 °F 30.18 in Calm     57 % 0.00 in
16:19 59.8 °F 44.5 °F 30.18 in Calm     57 % 0.00 in
16:22 59.4 °F 44.6 °F 30.18 in Calm     58 % 0.00 in
16:24 59.1 °F 44.3 °F 30.17 in Calm     58 % 0.00 in
16:28 58.7 °F 44.4 °F 30.17 in Calm     59 % 0.00 in
16:30 58.5 °F 44.7 °F 30.17 in Calm     60 % 0.00 in
16:35 57.9 °F 44.5 °F 30.17 in Calm     61 % 0.00 in
16:40 57.4 °F 44.1 °F 30.17 in Calm     61 % 0.00 in
16:41 57.3 °F 44.0 °F 30.17 in Calm     61 % 0.00 in
16:46 56.8 °F 44.3 °F 30.17 in Calm     63 % 0.00 in
16:51 56.3 °F 43.9 °F 30.17 in Calm     63 % 0.00 in
16:52 56.2 °F 43.8 °F 30.17 in Calm     63 % 0.00 in
16:57 55.7 °F 43.7 °F 30.17 in Calm     64 % 0.00 in
16:59 55.6 °F 43.6 °F 30.17 in Calm     64 % 0.00 in
17:04 55.0 °F 43.8 °F 30.17 in Calm     66 % 0.00 in
17:09 54.1 °F 43.4 °F 30.17 in Calm     67 % 0.00 in
17:11 53.9 °F 43.6 °F 30.17 in Calm     68 % 0.00 in
17:16 53.2 °F 42.9 °F 30.18 in Calm     68 % 0.00 in
17:19 52.8 °F 42.9 °F 30.17 in Calm     69 % 0.00 in
17:23 52.3 °F 43.2 °F 30.18 in Calm     71 % 0.00 in
17:25 52.0 °F 43.3 °F 30.17 in Calm     72 % 0.00 in
17:30 51.4 °F 43.0 °F 30.17 in Calm     73 % 0.00 in
17:31 51.2 °F 42.8 °F 30.17 in Calm     73 % 0.00 in
17:36 50.8 °F 42.8 °F 30.17 in Calm     74 % 0.00 in
17:38 50.6 °F 43.0 °F 30.17 in Calm     75 % 0.00 in
17:41 50.4 °F 43.1 °F 30.17 in Calm     76 % 0.00 in
17:44 50.2 °F 42.9 °F 30.17 in Calm     76 % 0.00 in
17:46 50.0 °F 42.7 °F 30.17 in Calm     76 % 0.00 in
17:51 50.1 °F 43.2 °F 30.17 in Calm     77 % 0.00 in
17:56 50.1 °F 42.8 °F 30.17 in Calm     76 % 0.00 in
17:58 50.1 °F 42.8 °F 30.17 in Calm     76 % 0.00 in
18:03 50.1 °F 42.8 °F 30.17 in Calm     76 % 0.00 in
18:06 50.1 °F 42.8 °F 30.17 in Calm     76 % 0.00 in
18:12 50.0 °F 42.7 °F 30.17 in Calm     76 % 0.00 in
18:13 50.0 °F 42.7 °F 30.17 in Calm     76 % 0.00 in
18:18 50.0 °F 42.7 °F 30.17 in Calm     76 % 0.00 in
18:19 50.0 °F 42.7 °F 30.17 in Calm     76 % 0.00 in
18:24 49.9 °F 42.6 °F 30.18 in Calm     76 % 0.00 in
18:28 49.8 °F 42.5 °F 30.18 in Calm     76 % 0.00 in
18:33 49.6 °F 42.3 °F 30.17 in Calm     76 % 0.00 in
18:38 49.4 °F 42.1 °F 30.18 in Calm     76 % 0.00 in
18:40 49.2 °F 42.0 °F 30.18 in Calm     76 % 0.00 in
18:43 49.0 °F 41.8 °F 30.18 in Calm     76 % 0.00 in
18:48 48.7 °F 41.8 °F 30.18 in Calm     77 % 0.00 in
18:49 48.7 °F 41.8 °F 30.18 in Calm     77 % 0.00 in
18:54 48.4 °F 41.9 °F 30.18 in Calm     78 % 0.00 in
18:59 48.1 °F 41.6 °F 30.18 in Calm     78 % 0.00 in
19:01 48.0 °F 41.5 °F 30.18 in Calm     78 % 0.00 in
19:06 47.7 °F 41.5 °F 30.18 in Calm     79 % 0.00 in
19:08 47.6 °F 41.4 °F 30.18 in Calm     79 % 0.00 in
19:13 47.3 °F 41.1 °F 30.18 in Calm     79 % 0.00 in
19:15 47.2 °F 41.3 °F 30.18 in Calm     80 % 0.00 in
19:20 47.3 °F 41.4 °F 30.17 in Calm     80 % 0.00 in
19:25 47.3 °F 41.4 °F 30.17 in Calm     80 % 0.00 in
19:29 47.4 °F 41.5 °F 30.17 in Calm     80 % 0.00 in
19:30 47.4 °F 41.2 °F 30.17 in Calm     79 % 0.00 in
19:34 47.3 °F 41.4 °F 30.17 in Calm     80 % 0.00 in
19:39 47.0 °F 40.8 °F 30.17 in Calm     79 % 0.00 in
19:42 46.9 °F 41.1 °F 30.18 in Calm     80 % 0.00 in
19:47 46.7 °F 40.9 °F 30.17 in Calm     80 % 0.00 in
19:49 46.6 °F 40.8 °F 30.17 in Calm     80 % 0.00 in
19:54 46.4 °F 40.6 °F 30.17 in Calm     80 % 0.00 in
19:55 46.4 °F 40.6 °F 30.17 in Calm     80 % 0.00 in
20:00 45.9 °F 40.1 °F 30.17 in Calm     80 % 0.00 in
20:06 45.3 °F 39.5 °F 30.17 in Calm     80 % 0.00 in
20:07 45.2 °F 39.4 °F 30.17 in Calm     80 % 0.00 in
20:12 44.6 °F 39.4 °F 30.17 in Calm     82 % 0.00 in
20:17 44.0 °F 38.9 °F 30.17 in Calm     82 % 0.00 in
20:19 43.8 °F 39.0 °F 30.17 in Calm     83 % 0.00 in
20:22 43.5 °F 38.7 °F 30.17 in Calm     83 % 0.00 in
20:26 43.2 °F 38.7 °F 30.17 in Calm     84 % 0.00 in
20:29 43.1 °F 38.9 °F 30.17 in Calm     85 % 0.00 in
20:32 42.9 °F 38.7 °F 30.17 in Calm     85 % 0.00 in
20:36 42.7 °F 38.8 °F 30.17 in Calm     86 % 0.00 in
20:39 42.7 °F 39.1 °F 30.17 in Calm     87 % 0.00 in
20:42 42.6 °F 39.0 °F 30.17 in Calm     87 % 0.00 in
20:47 42.5 °F 38.9 °F 30.17 in Calm     87 % 0.00 in
20:48 42.5 °F 39.2 °F 30.17 in Calm     88 % 0.00 in
20:54 42.4 °F 39.1 °F 30.18 in Calm     88 % 0.00 in
20:59 42.4 °F 39.1 °F 30.18 in Calm     88 % 0.00 in
21:04 42.3 °F 39.0 °F 30.18 in Calm     88 % 0.00 in
21:09 42.3 °F 39.0 °F 30.18 in Calm     88 % 0.00 in
21:10 42.3 °F 39.0 °F 30.18 in Calm     88 % 0.00 in
21:16 42.1 °F 38.8 °F 30.18 in Calm     88 % 0.00 in
21:21 42.1 °F 38.8 °F 30.18 in Calm     88 % 0.00 in
21:22 42.1 °F 38.8 °F 30.18 in Calm     88 % 0.00 in
21:27 42.1 °F 38.8 °F 30.18 in Calm     88 % 0.00 in
21:29 42.0 °F 38.7 °F 30.18 in Calm     88 % 0.00 in
21:34 41.9 °F 38.6 °F 30.18 in Calm     88 % 0.00 in
21:35 41.8 °F 38.5 °F 30.18 in Calm     88 % 0.00 in
21:36 41.8 °F 38.5 °F 30.18 in Calm     88 % 0.00 in
21:40 41.6 °F 38.3 °F 30.18 in Calm     88 % 0.00 in
21:44 41.6 °F 38.6 °F 30.18 in Calm     89 % 0.00 in
21:48 41.6 °F 38.6 °F 30.18 in Calm     89 % 0.00 in
21:50 41.7 °F 38.7 °F 30.18 in Calm     89 % 0.00 in
21:55 41.7 °F 38.7 °F 30.18 in Calm     89 % 0.00 in
22:00 42.1 °F 39.1 °F 30.18 in Calm     89 % 0.00 in
22:01 42.2 °F 39.2 °F 30.18 in Calm     89 % 0.00 in
22:06 42.3 °F 39.0 °F 30.18 in Calm     88 % 0.00 in
22:07 42.4 °F 39.1 °F 30.18 in Calm     88 % 0.00 in
22:12 42.4 °F 38.8 °F 30.19 in Calm     87 % 0.00 in
22:13 42.4 °F 38.8 °F 30.19 in Calm     87 % 0.00 in
22:18 42.2 °F 38.6 °F 30.19 in Calm     87 % 0.00 in
22:20 42.2 °F 38.6 °F 30.19 in Calm     87 % 0.00 in
22:25 42.0 °F 38.4 °F 30.19 in Calm     87 % 0.00 in
22:26 42.0 °F 38.4 °F 30.19 in Calm     87 % 0.00 in
22:31 41.7 °F 38.1 °F 30.19 in Calm     87 % 0.00 in
22:34 41.7 °F 38.1 °F 30.19 in Calm     87 % 0.00 in
22:39 41.5 °F 37.9 °F 30.19 in Calm     87 % 0.00 in
22:40 41.5 °F 37.9 °F 30.19 in Calm     87 % 0.00 in
22:44 41.5 °F 37.9 °F 30.19 in Calm     87 % 0.00 in
22:47 41.5 °F 37.9 °F 30.19 in Calm     87 % 0.00 in
22:52 41.5 °F 37.6 °F 30.18 in Calm     86 % 0.00 in
22:57 41.5 °F 37.9 °F 30.18 in Calm     87 % 0.00 in
23:02 41.6 °F 38.0 °F 30.18 in Calm     87 % 0.00 in
23:03 41.6 °F 37.7 °F 30.19 in Calm     86 % 0.00 in
23:08 41.5 °F 37.6 °F 30.18 in Calm     86 % 0.00 in
23:10 41.4 °F 37.5 °F 30.18 in Calm     86 % 0.00 in
23:15 41.2 °F 37.3 °F 30.18 in Calm     86 % 0.00 in
23:17 41.1 °F 37.2 °F 30.18 in Calm     86 % 0.00 in
23:22 40.8 °F 37.2 °F 30.18 in Calm     87 % 0.00 in
23:26 40.6 °F 37.0 °F 30.18 in Calm     87 % 0.00 in
23:31 40.5 °F 37.2 °F 30.18 in Calm     88 % 0.00 in
23:32 40.5 °F 37.2 °F 30.17 in Calm     88 % 0.00 in
23:35 40.4 °F 37.1 °F 30.17 in Calm     88 % 0.00 in
23:40 40.4 °F 37.4 °F 30.17 in Calm     89 % 0.00 in
23:41 40.4 °F 37.4 °F 30.17 in Calm     89 % 0.00 in
23:42 40.4 °F 37.4 °F 30.17 in Calm     89 % 0.00 in
23:47 40.5 °F 37.5 °F 30.17 in Calm     89 % 0.00 in
23:49 40.5 °F 37.2 °F 30.17 in Calm     88 % 0.00 in
23:54 40.5 °F 37.2 °F 30.17 in Calm     88 % 0.00 in
23:59 40.5 °F 37.2 °F 30.17 in Calm     88 % 0.00 in
Park Place, Exeter, Tulare County, California, USA
Compliments of Weather Underground - 3.25 mb